Time;durP1;ratioP1;P1;durP2;ratioP2;P2;SDS_P1;SDS_P2;PMS_P1;PMS_P2;Temp;Humidity;BMP_temperature;BMP_pressure;BME280_temperature;BME280_humidity;BME280_pressure;Samples;Min_cycle;Max_cycle;Signal;HPM_P1;HPM_P2
2023/03/28 00:00:58;;;;;;;6.07;2.90;;;;;;;1.11;100.00;99607.53;4998785;28;20287;-54
2023/03/28 00:03:26;;;;;;;3.43;2.20;;;;;;;0.98;100.00;99614.97;4979235;28;20228;-55
2023/03/28 00:05:55;;;;;;;4.20;3.00;;;;;;;0.82;100.00;99612.19;4974677;28;20232;-56
2023/03/28 00:08:23;;;;;;;6.93;3.00;;;;;;;0.77;100.00;99619.25;4979026;28;20884;-55
2023/03/28 00:10:52;;;;;;;5.47;2.90;;;;;;;0.77;100.00;99613.28;4977173;28;20232;-53
2023/03/28 00:13:20;;;;;;;6.33;3.17;;;;;;;0.63;100.00;99622.41;4979092;28;20727;-53
2023/03/28 00:15:51;;;;;;;7.47;3.27;;;;;;;0.55;100.00;99624.44;4976627;28;20228;-53
2023/03/28 00:18:18;;;;;;;5.43;3.20;;;;;;;0.46;100.00;99622.25;4978597;28;20228;-55
2023/03/28 00:20:45;;;;;;;4.13;3.10;;;;;;;0.49;100.00;99627.25;4978577;28;20230;-56
2023/03/28 00:23:12;;;;;;;8.73;3.27;;;;;;;0.35;100.00;99631.22;4976696;28;20237;-54
2023/03/28 00:25:40;;;;;;;5.03;2.60;;;;;;;0.32;100.00;99638.22;4956092;28;20231;-56
2023/03/28 00:28:12;;;;;;;4.93;3.03;;;;;;;0.35;100.00;99632.97;4965026;28;20762;-56
2023/03/28 00:30:47;;;;;;;7.47;3.27;;;;;;;0.27;100.00;99634.09;4964928;28;20641;-55
2023/03/28 00:33:14;;;;;;;6.40;3.50;;;;;;;0.17;100.00;99639.63;4946098;28;20234;-56
2023/03/28 00:35:41;;;;;;;4.97;3.50;;;;;;;0.11;100.00;99636.41;4972263;28;20239;-55
2023/03/28 00:38:12;;;;;;;7.37;3.47;;;;;;;0.26;100.00;99644.41;4974967;28;22166;-53
2023/03/28 00:40:47;;;;;;;5.03;3.40;;;;;;;0.24;100.00;99641.94;4977088;28;20263;-56
2023/03/28 00:43:17;;;;;;;6.23;3.43;;;;;;;0.25;100.00;99647.88;4944371;28;20234;-56
2023/03/28 00:45:49;;;;;;;7.07;3.43;;;;;;;0.18;100.00;99651.59;4995612;28;20687;-55
2023/03/28 00:48:21;;;;;;;5.40;3.60;;;;;;;0.13;100.00;99646.63;4974323;28;21453;-54
2023/03/28 00:50:50;;;;;;;8.80;3.43;;;;;;;0.18;100.00;99649.00;4958762;28;20833;-55
2023/03/28 00:53:27;;;;;;;7.50;3.47;;;;;;;0.18;100.00;99647.28;4976453;28;20778;-56
2023/03/28 00:56:04;;;;;;;6.30;3.50;;;;;;;0.10;100.00;99647.56;4968432;28;20240;-56
2023/03/28 00:58:34;;;;;;;7.13;3.67;;;;;;;0.10;100.00;99652.72;4977916;28;20224;-55
2023/03/28 01:01:01;;;;;;;8.37;3.27;;;;;;;0.07;100.00;99645.13;4977237;28;20228;-53
2023/03/28 01:03:34;;;;;;;7.47;3.57;;;;;;;0.02;100.00;99649.59;4979839;28;20225;-53
2023/03/28 01:06:05;;;;;;;7.10;3.53;;;;;;;0.11;100.00;99649.25;4981149;28;20306;-53
2023/03/28 01:08:39;;;;;;;7.53;3.87;;;;;;;0.18;100.00;99654.16;4983388;28;20644;-53
2023/03/28 01:11:09;;;;;;;5.67;3.40;;;;;;;0.26;100.00;99652.97;4997038;28;20253;-55
2023/03/28 01:13:40;;;;;;;7.13;3.63;;;;;;;0.25;100.00;99648.72;4998673;28;20232;-54
2023/03/28 01:16:08;;;;;;;8.20;4.60;;;;;;;0.18;100.00;99657.56;4995644;28;20224;-54
2023/03/28 01:18:40;;;;;;;7.40;3.63;;;;;;;0.11;100.00;99658.69;4984590;28;20426;-53
2023/03/28 01:21:31;;;;;;;9.50;3.63;;;;;;;0.08;100.00;99651.13;4977846;28;20242;-54
2023/03/28 01:24:22;;;;;;;6.00;3.63;;;;;;;0.10;100.00;99650.16;4978144;28;20902;-52
2023/03/28 01:26:54;;;;;;;8.17;3.67;;;;;;;0.01;100.00;99655.63;4997718;28;20243;-55
2023/03/28 01:30:00;;;;;;;6.33;3.43;;;;;;;0.02;100.00;99659.03;4984163;28;20247;-54
2023/03/28 01:33:18;;;;;;;6.97;3.73;;;;;;;-0.14;100.00;99657.06;4980288;28;20884;-54
2023/03/28 01:36:32;;;;;;;5.20;3.10;;;;;;;-0.28;100.00;99659.28;4954323;28;20581;-54
2023/03/28 01:39:09;;;;;;;6.10;3.77;;;;;;;-0.39;100.00;99657.13;4973456;28;20763;-53
2023/03/28 01:41:43;;;;;;;5.53;3.27;;;;;;;-0.39;100.00;99650.25;4979172;28;20260;-55
2023/03/28 01:44:17;;;;;;;10.13;4.20;;;;;;;-0.40;100.00;99645.19;4992654;28;20267;-55
2023/03/28 01:46:48;;;;;;;9.77;4.20;;;;;;;-0.34;100.00;99657.78;4995092;28;20234;-53
2023/03/28 01:49:22;;;;;;;9.60;4.30;;;;;;;-0.39;100.00;99652.81;4975705;28;20254;-54
2023/03/28 01:51:57;;;;;;;8.57;4.40;;;;;;;-0.47;100.00;99658.22;4980557;28;20237;-56
2023/03/28 01:54:31;;;;;;;6.13;4.23;;;;;;;-0.51;100.00;99653.25;4995161;28;20247;-55
2023/03/28 01:57:06;;;;;;;7.63;3.70;;;;;;;-0.60;100.00;99646.75;4973392;28;20716;-53
2023/03/28 01:59:39;;;;;;;7.27;4.03;;;;;;;-0.71;100.00;99648.84;4994919;28;20236;-55
2023/03/28 02:02:30;;;;;;;7.67;4.10;;;;;;;-0.73;100.00;99653.19;4977899;28;20240;-53
2023/03/28 02:05:06;;;;;;;7.93;3.57;;;;;;;-0.83;100.00;99648.38;4977730;28;20231;-55
2023/03/28 02:07:40;;;;;;;6.77;4.40;;;;;;;-0.84;100.00;99656.13;4987085;28;20288;-55
2023/03/28 02:10:16;;;;;;;11.17;4.67;;;;;;;-0.86;100.00;99648.47;4978767;28;20290;-54
2023/03/28 02:13:04;;;;;;;8.30;4.00;;;;;;;-0.98;100.00;99648.91;4973582;28;20620;-54
2023/03/28 02:15:50;;;;;;;8.37;3.73;;;;;;;-0.91;100.00;99648.66;4972444;28;20240;-55
2023/03/28 02:18:31;;;;;;;9.17;4.00;;;;;;;-0.87;100.00;99648.56;4979582;28;20247;-55
2023/03/28 02:21:21;;;;;;;7.90;3.90;;;;;;;-1.02;100.00;99652.44;4978597;28;20252;-54
2023/03/28 02:24:14;;;;;;;5.70;3.57;;;;;;;-1.08;100.00;99649.25;4971482;28;20237;-54
2023/03/28 02:26:55;;;;;;;13.33;4.23;;;;;;;-1.09;100.00;99646.72;4994081;28;20264;-55
2023/03/28 02:29:37;;;;;;;8.70;3.73;;;;;;;-1.16;100.00;99640.97;4982882;28;20228;-54
2023/03/28 02:32:14;;;;;;;8.40;4.23;;;;;;;-1.19;100.00;99644.47;4993006;28;20758;-53
2023/03/28 02:34:42;;;;;;;7.37;4.47;;;;;;;-1.24;100.00;99643.78;4995154;28;20298;-54
2023/03/28 02:37:21;;;;;;;7.50;4.17;;;;;;;-1.21;100.00;99643.66;4974958;28;20625;-54
2023/03/28 02:39:59;;;;;;;6.60;4.10;;;;;;;-1.17;100.00;99646.13;4974818;28;20698;-54
2023/03/28 02:42:40;;;;;;;10.33;3.90;;;;;;;-1.30;100.00;99646.53;4974071;28;20343;-53
2023/03/28 02:45:39;;;;;;;7.00;4.03;;;;;;;-1.34;100.00;99644.97;4976331;28;20261;-54
2023/03/28 02:48:21;;;;;;;9.70;4.20;;;;;;;-1.42;100.00;99640.09;4972923;28;20339;-53
2023/03/28 02:50:59;;;;;;;7.60;3.60;;;;;;;-1.39;100.00;99646.81;4993504;28;20295;-55
2023/03/28 02:53:32;;;;;;;8.17;3.80;;;;;;;-1.43;100.00;99637.56;4974649;28;20236;-54
2023/03/28 02:56:04;;;;;;;6.20;3.40;;;;;;;-1.48;100.00;99627.50;4993726;28;20239;-53
2023/03/28 02:58:55;;;;;;;9.73;4.10;;;;;;;-1.58;100.00;99632.03;4977245;28;20233;-53
2023/03/28 03:01:24;;;;;;;11.37;3.77;;;;;;;-1.56;100.00;99625.16;4974108;28;20299;-55
2023/03/28 03:03:51;;;;;;;6.77;3.50;;;;;;;-1.46;100.00;99630.84;4996522;28;20319;-55
2023/03/28 03:06:18;;;;;;;6.53;3.93;;;;;;;-1.52;100.00;99628.47;4980484;28;20233;-54
2023/03/28 03:08:47;;;;;;;7.40;4.10;;;;;;;-1.57;100.00;99626.03;4994129;28;20227;-55
2023/03/28 03:11:14;;;;;;;9.27;4.27;;;;;;;-1.52;100.00;99615.66;4977863;28;20608;-54
2023/03/28 03:13:42;;;;;;;7.10;3.90;;;;;;;-1.47;100.00;99621.47;4977638;28;20230;-55
2023/03/28 03:16:10;;;;;;;6.77;3.90;;;;;;;-1.49;100.00;99620.69;4976373;28;20243;-52
2023/03/28 03:18:36;;;;;;;7.43;3.90;;;;;;;-1.51;100.00;99618.16;4979979;28;20231;-54
2023/03/28 03:21:04;;;;;;;8.77;3.67;;;;;;;-1.56;100.00;99621.78;4975627;28;20239;-55
2023/03/28 03:23:31;;;;;;;8.33;3.60;;;;;;;-1.55;100.00;99624.28;4994053;28;20240;-55
2023/03/28 03:25:59;;;;;;;12.20;4.10;;;;;;;-1.59;100.00;99615.00;4991148;28;20259;-54
2023/03/28 03:28:32;;;;;;;6.20;3.53;;;;;;;-1.61;100.00;99615.97;4979282;28;20247;-55
2023/03/28 03:31:01;;;;;;;8.17;3.80;;;;;;;-1.66;100.00;99614.38;5215628;22;20229;-53
2023/03/28 03:33:48;;;;;;;8.47;3.73;;;;;;;-1.58;100.00;99618.44;4959674;28;20258;-54
2023/03/28 03:36:19;;;;;;;8.47;3.60;;;;;;;-1.61;100.00;99614.25;4959278;28;20243;-54
2023/03/28 03:38:48;;;;;;;9.00;3.60;;;;;;;-1.68;100.00;99611.03;4974930;28;20250;-56
2023/03/28 03:41:20;;;;;;;8.07;3.80;;;;;;;-1.74;100.00;99613.78;4971888;28;20582;-54
2023/03/28 03:43:48;;;;;;;10.03;4.23;;;;;;;-1.70;100.00;99612.81;4958319;28;20229;-54
2023/03/28 03:46:15;;;;;;;8.00;3.50;;;;;;;-1.77;100.00;99613.06;4959309;28;20588;-54
2023/03/28 03:48:41;;;;;;;10.50;4.50;;;;;;;-1.70;100.00;99611.97;4960468;28;20523;-57
2023/03/28 03:51:09;;;;;;;8.97;4.17;;;;;;;-1.75;100.00;99612.09;4957759;28;20252;-54
2023/03/28 03:53:37;;;;;;;7.63;3.40;;;;;;;-1.73;100.00;99606.97;4961035;28;20322;-55
2023/03/28 03:56:10;;;;;;;5.50;3.77;;;;;;;-1.77;100.00;99607.94;4968386;28;21352;-55
2023/03/28 03:58:58;;;;;;;6.17;3.33;;;;;;;-1.79;100.00;99616.50;4956745;28;20313;-54
2023/03/28 04:01:34;;;;;;;8.47;3.33;;;;;;;-1.80;100.00;99611.41;4958726;28;20233;-53
2023/03/28 04:04:21;;;;;;;8.47;3.47;;;;;;;-1.74;100.00;99613.78;4935892;28;20248;-55
2023/03/28 04:07:06;;;;;;;10.77;3.50;;;;;;;-1.83;100.00;99617.47;4958072;28;20227;-54
2023/03/28 04:09:34;;;;;;;6.43;2.97;;;;;;;-1.87;100.00;99620.16;4959038;28;20237;-54
2023/03/28 04:12:03;;;;;;;8.70;2.70;;;;;;;-1.89;100.00;99619.38;4958870;28;20229;-53
2023/03/28 04:14:32;;;;;;;7.83;3.30;;;;;;;-1.86;100.00;99619.28;4954701;28;20236;-54
2023/03/28 04:17:20;;;;;;;9.67;3.07;;;;;;;-1.91;100.00;99626.25;4958844;28;20247;-54
2023/03/28 04:19:48;;;;;;;6.00;2.80;;;;;;;-1.95;100.00;99621.25;4971206;28;20232;-54
2023/03/28 04:22:18;;;;;;;8.73;3.10;;;;;;;-1.99;100.00;99624.78;4958140;28;20246;-55
2023/03/28 04:24:52;;;;;;;7.33;2.97;;;;;;;-2.05;100.00;99630.06;4955623;28;20310;-55
2023/03/28 04:27:32;;;;;;;4.63;2.80;;;;;;;-2.10;100.00;99625.13;4960038;28;20868;-54
2023/03/28 04:30:00;;;;;;;9.23;2.70;;;;;;;-2.15;100.00;99628.69;4972183;28;20263;-54
2023/03/28 04:32:49;;;;;;;6.70;3.23;;;;;;;-2.09;100.00;99633.59;4960675;28;20240;-56
2023/03/28 04:35:23;;;;;;;5.47;2.80;;;;;;;-2.08;100.00;99632.72;4972005;28;20244;-55
2023/03/28 04:37:56;;;;;;;9.43;3.23;;;;;;;-2.15;100.00;99636.38;4956423;28;20237;-55
2023/03/28 04:40:26;;;;;;;4.67;2.77;;;;;;;-2.14;100.00;99638.06;4976325;28;20229;-52
2023/03/28 04:43:02;;;;;;;10.10;2.60;;;;;;;-2.12;100.00;99633.72;4950921;28;20251;-54
2023/03/28 04:45:34;;;;;;;6.47;2.70;;;;;;;-2.14;100.00;99635.50;4959463;28;20574;-54
2023/03/28 04:48:16;;;;;;;7.50;2.67;;;;;;;-2.14;100.00;99638.06;4955723;28;20256;-53
2023/03/28 04:50:43;;;;;;;5.50;2.50;;;;;;;-2.19;100.00;99639.91;4959357;28;20234;-53
2023/03/28 04:53:11;;;;;;;8.23;2.63;;;;;;;-2.16;100.00;99639.81;4971981;28;20241;-52
2023/03/28 04:55:48;;;;;;;4.50;2.10;;;;;;;-2.15;100.00;99649.16;4956164;28;20233;-54
2023/03/28 04:58:22;;;;;;;6.67;1.90;;;;;;;-2.12;100.00;99654.19;4960285;28;20225;-54
2023/03/28 05:00:49;;;;;;;5.27;2.40;;;;;;;-2.16;100.00;99656.00;4958003;28;20288;-55
2023/03/28 05:03:49;;;;;;;6.30;2.47;;;;;;;-2.18;100.00;99655.19;4970804;28;20271;-55
2023/03/28 05:06:15;;;;;;;4.77;2.00;;;;;;;-2.15;100.00;99652.53;4957961;28;20322;-54
2023/03/28 05:08:43;;;;;;;5.70;1.90;;;;;;;-2.17;100.00;99658.59;4958145;28;20255;-54
2023/03/28 05:11:11;;;;;;;5.53;1.97;;;;;;;-2.27;100.00;99660.56;4972791;28;20319;-54
2023/03/28 05:13:37;;;;;;;5.07;2.47;;;;;;;-2.20;100.00;99656.97;4958964;28;20310;-54
2023/03/28 05:16:17;;;;;;;12.07;2.23;;;;;;;-2.19;100.00;99671.41;4955740;28;20245;-53
2023/03/28 05:19:05;;;;;;;9.57;3.58;;;;;;;-2.13;100.00;99670.44;4956914;28;20447;-53
2023/03/28 05:21:51;;;;;;;5.47;2.87;;;;;;;-2.18;100.00;99675.66;4956951;28;20237;-55
2023/03/28 05:24:19;;;;;;;7.07;3.73;;;;;;;-2.21;100.00;99680.03;4962264;28;20237;-55
2023/03/28 05:26:46;;;;;;;17.10;6.97;;;;;;;-2.18;100.00;99678.22;4956724;28;20730;-55
2023/03/28 05:29:13;;;;;;;9.50;5.13;;;;;;;-2.16;100.00;99688.41;4976331;28;20699;-54
2023/03/28 05:31:45;;;;;;;10.37;5.33;;;;;;;-2.14;100.00;99684.91;4958651;28;20336;-53
2023/03/28 05:34:24;;;;;;;9.23;4.80;;;;;;;-2.14;100.00;99684.91;4959041;28;20324;-55
2023/03/28 05:36:51;;;;;;;17.33;8.00;;;;;;;-2.15;100.00;99695.22;4959479;28;20237;-55
2023/03/28 05:39:29;;;;;;;14.37;5.33;;;;;;;-2.15;100.00;99690.91;4961533;28;20290;-54
2023/03/28 05:42:04;;;;;;;12.23;4.63;;;;;;;-2.11;100.00;99695.06;4963671;28;20321;-54
2023/03/28 05:44:33;;;;;;;11.57;4.63;;;;;;;-2.07;100.00;99703.47;4961896;28;20235;-53
2023/03/28 05:47:23;;;;;;;7.83;3.07;;;;;;;-2.03;100.00;99706.81;4950842;28;20603;-54
2023/03/28 05:49:50;;;;;;;6.20;3.43;;;;;;;-2.02;100.00;99711.03;4959224;28;20344;-55
2023/03/28 05:52:17;;;;;;;7.83;3.67;;;;;;;-1.91;100.00;99703.03;4961474;28;20596;-54
2023/03/28 05:54:48;;;;;;;6.60;3.03;;;;;;;-1.89;100.00;99703.84;4961507;28;20597;-54
2023/03/28 05:57:17;;;;;;;8.43;3.30;;;;;;;-1.90;100.00;99702.16;4960680;28;20243;-53
2023/03/28 05:59:43;;;;;;;8.20;3.10;;;;;;;-1.89;100.00;99706.38;4962202;28;21262;-54
2023/03/28 06:02:17;;;;;;;9.45;3.53;;;;;;;-1.87;100.00;99705.47;4957344;28;20890;-54
2023/03/28 06:04:45;;;;;;;7.00;2.80;;;;;;;-1.77;100.00;99706.03;4960406;28;20234;-54
2023/03/28 06:07:13;;;;;;;6.57;3.20;;;;;;;-1.80;100.00;99699.28;4958590;28;20295;-54
2023/03/28 06:09:41;;;;;;;4.67;2.87;;;;;;;-1.76;100.00;99702.59;4960528;28;20324;-52
2023/03/28 06:12:11;;;;;;;8.27;3.23;;;;;;;-1.68;100.00;99698.06;4955514;28;20364;-54
2023/03/28 06:14:42;;;;;;;8.30;4.00;;;;;;;-1.58;100.00;99702.91;4962657;28;20233;-54
2023/03/28 06:17:20;;;;;;;6.43;2.97;;;;;;;-1.61;100.00;99700.44;4959908;28;20252;-53
2023/03/28 06:19:50;;;;;;;8.37;3.57;;;;;;;-1.63;100.00;99691.09;4958475;28;20252;-54
2023/03/28 06:22:17;;;;;;;9.07;5.27;;;;;;;-1.62;100.00;99702.19;4962158;28;20651;-53
2023/03/28 06:24:48;;;;;;;6.27;4.03;;;;;;;-1.52;100.00;99695.88;4960150;28;20348;-52
2023/03/28 06:27:25;;;;;;;10.33;4.43;;;;;;;-1.46;100.00;99688.88;4958822;28;20235;-53
2023/03/28 06:29:52;;;;;;;10.37;3.70;;;;;;;-1.45;100.00;99696.53;4956873;28;20288;-54
2023/03/28 06:32:19;;;;;;;7.80;3.97;;;;;;;-1.42;100.00;99701.56;4959624;28;20238;-54
2023/03/28 06:34:46;;;;;;;9.73;4.17;;;;;;;-1.36;100.00;99709.06;4959806;28;20241;-54
2023/03/28 06:37:13;;;;;;;8.97;3.90;;;;;;;-1.31;100.00;99711.47;4960281;28;20263;-52
2023/03/28 06:40:02;;;;;;;8.00;4.07;;;;;;;-1.24;100.00;99714.69;4958544;28;20319;-55
2023/03/28 06:42:31;;;;;;;13.67;3.60;;;;;;;-1.28;100.00;99719.03;4960588;28;20241;-53
2023/03/28 06:45:13;;;;;;;9.03;3.30;;;;;;;-1.25;100.00;99725.81;4959243;28;20228;-55
2023/03/28 06:47:49;;;;;;;12.47;3.70;;;;;;;-1.18;100.00;99722.16;4958900;28;20250;-54
2023/03/28 06:50:17;;;;;;;7.77;4.17;;;;;;;-1.20;100.00;99734.19;4971252;28;20238;-54
2023/03/28 06:53:13;;;;;;;11.03;3.10;;;;;;;-1.16;100.00;99730.66;4954992;28;20395;-55
2023/03/28 06:55:42;;;;;;;9.70;3.57;;;;;;;-1.10;100.00;99735.56;4959532;28;20241;-53
2023/03/28 06:58:10;;;;;;;7.73;3.50;;;;;;;-1.06;100.00;99734.56;4973627;28;20282;-55
2023/03/28 07:00:45;;;;;;;10.77;3.87;;;;;;;-0.98;100.00;99725.78;4960300;28;20582;-54
2023/03/28 07:03:30;;;;;;;7.83;3.70;;;;;;;-0.90;100.00;99726.38;4959601;28;20248;-53
2023/03/28 07:05:58;;;;;;;10.17;3.60;;;;;;;-0.83;100.00;99732.97;4956170;28;20236;-53
2023/03/28 07:08:25;;;;;;;7.50;3.40;;;;;;;-0.78;100.00;99733.66;4958166;28;20257;-52
2023/03/28 07:10:52;;;;;;;10.33;3.30;;;;;;;-0.72;100.00;99732.63;4952839;28;20233;-54
2023/03/28 07:13:21;;;;;;;10.43;4.93;;;;;;;-0.61;100.00;99739.94;4959789;28;20241;-55
2023/03/28 07:16:00;;;;;;;9.60;3.00;;;;;;;-0.55;100.00;99744.06;4973538;28;20244;-54
2023/03/28 07:18:27;;;;;;;5.33;3.23;;;;;;;-0.49;100.00;99744.66;4960179;28;20236;-53
2023/03/28 07:20:57;;;;;;;9.73;3.27;;;;;;;-0.44;100.00;99752.19;4957218;28;20260;-55
2023/03/28 07:23:24;;;;;;;7.10;3.47;;;;;;;-0.35;100.00;99744.16;4961176;28;20248;-55
2023/03/28 07:25:51;;;;;;;7.37;3.97;;;;;;;-0.22;100.00;99746.31;4975142;28;20240;-55
2023/03/28 07:28:20;;;;;;;13.97;4.30;;;;;;;-0.13;100.00;99753.69;4959349;28;20245;-54
2023/03/28 07:30:47;;;;;;;10.40;4.33;;;;;;;-0.04;100.00;99755.09;4958284;28;20233;-53
2023/03/28 07:33:13;;;;;;;13.03;5.00;;;;;;;0.05;100.00;99761.63;4959997;28;20244;-55
2023/03/28 07:35:40;;;;;;;8.57;4.47;;;;;;;0.19;100.00;99755.97;4956892;28;20336;-54
2023/03/28 07:38:11;;;;;;;8.50;4.30;;;;;;;0.33;100.00;99765.75;4953712;28;20229;-54
2023/03/28 07:40:49;;;;;;;7.10;3.73;;;;;;;0.55;100.00;99763.19;4957965;28;20237;-54
2023/03/28 07:43:16;;;;;;;10.00;4.73;;;;;;;0.69;100.00;99762.63;4959618;28;20233;-53
2023/03/28 07:45:45;;;;;;;7.70;4.33;;;;;;;0.82;100.00;99760.44;4958807;28;20234;-55
2023/03/28 07:48:12;;;;;;;9.53;5.00;;;;;;;0.92;100.00;99755.75;4958124;28;20336;-55
2023/03/28 07:50:40;;;;;;;15.33;5.43;;;;;;;1.05;100.00;99762.09;4960892;28;20237;-55
2023/03/28 07:53:06;;;;;;;11.10;5.20;;;;;;;1.17;100.00;99765.88;4957369;28;20317;-53
2023/03/28 07:55:37;;;;;;;9.70;5.27;;;;;;;1.26;100.00;99765.50;4959521;28;20242;-54
2023/03/28 07:58:06;;;;;;;12.03;5.30;;;;;;;1.37;100.00;99759.94;4951671;28;20358;-55
2023/03/28 08:00:36;;;;;;;11.90;4.80;;;;;;;1.49;100.00;99765.47;4958257;28;20685;-55
2023/03/28 08:03:23;;;;;;;16.07;6.43;;;;;;;1.64;100.00;99769.13;4960368;28;20232;-53
2023/03/28 08:05:51;;;;;;;11.37;5.33;;;;;;;1.77;100.00;99778.00;4953256;28;20261;-54
2023/03/28 08:08:20;;;;;;;9.70;5.07;;;;;;;1.88;100.00;99772.38;4956617;28;20334;-54
2023/03/28 08:10:55;;;;;;;17.33;5.40;;;;;;;2.09;100.00;99778.31;4956855;28;20225;-53
2023/03/28 08:13:21;;;;;;;18.67;6.40;;;;;;;2.20;100.00;99778.66;4959648;28;20237;-53
2023/03/28 08:15:49;;;;;;;12.40;5.67;;;;;;;2.34;100.00;99775.47;4957548;28;20582;-55
2023/03/28 08:18:19;;;;;;;11.50;6.30;;;;;;;2.45;100.00;99771.56;4960625;28;20737;-55
2023/03/28 08:20:47;;;;;;;12.23;5.40;;;;;;;2.53;100.00;99771.22;4959647;28;20788;-54
2023/03/28 08:23:16;;;;;;;13.37;5.60;;;;;;;2.59;100.00;99781.22;4955861;28;20233;-55
2023/03/28 08:25:43;;;;;;;14.23;6.30;;;;;;;2.67;100.00;99776.56;4959846;28;20242;-55
2023/03/28 08:28:12;;;;;;;14.23;6.50;;;;;;;2.86;100.00;99776.50;4956772;28;20245;-53
2023/03/28 08:30:39;;;;;;;13.10;6.47;;;;;;;3.05;94.54;99775.63;4957760;28;20270;-55
2023/03/28 08:33:06;;;;;;;11.13;6.10;;;;;;;3.20;93.84;99784.38;4950151;28;20235;-55
2023/03/28 08:35:33;;;;;;;12.17;6.37;;;;;;;3.43;92.96;99780.66;4957815;28;20261;-53
2023/03/28 08:38:06;;;;;;;13.47;6.57;;;;;;;3.59;93.57;99785.88;4956219;28;20222;-53
2023/03/28 08:40:39;;;;;;;17.10;8.93;;;;;;;3.71;92.01;99783.59;4959102;28;20890;-53
2023/03/28 08:43:26;;;;;;;24.50;9.33;;;;;;;3.74;91.69;99791.19;4955663;28;20315;-55
2023/03/28 08:45:56;;;;;;;11.57;6.50;;;;;;;3.81;90.99;99790.78;4955006;28;20360;-53
2023/03/28 08:48:27;;;;;;;10.63;6.00;;;;;;;3.89;89.22;99787.81;4957256;28;20228;-55
2023/03/28 08:51:00;;;;;;;13.00;5.97;;;;;;;3.88;87.28;99796.50;4954395;28;20235;-55
2023/03/28 08:53:33;;;;;;;12.70;5.80;;;;;;;3.74;89.99;99791.19;4958565;28;20266;-55
2023/03/28 08:56:03;;;;;;;9.57;6.10;;;;;;;3.75;87.64;99788.50;4954578;28;20237;-54
2023/03/28 08:58:34;;;;;;;14.80;6.67;;;;;;;3.52;87.84;99784.53;4975584;28;20252;-55
2023/03/28 09:01:02;;;;;;;15.33;6.17;;;;;;;3.51;87.06;99780.28;4958346;28;20251;-55
2023/03/28 09:03:36;;;;;;;12.73;6.30;;;;;;;3.59;87.69;99777.31;4978720;28;20235;-55
2023/03/28 09:06:19;;;;;;;11.73;6.03;;;;;;;3.87;89.29;99778.47;4960073;28;20631;-55
2023/03/28 09:09:21;;;;;;;11.70;5.60;;;;;;;4.05;86.27;99785.25;4974211;28;20343;-55
2023/03/28 09:12:09;;;;;;;11.40;5.13;;;;;;;4.06;82.07;99780.94;4954608;28;20296;-55
2023/03/28 09:15:02;;;;;;;9.13;5.60;;;;;;;3.98;80.31;99779.59;4973399;28;20251;-55
2023/03/28 09:17:41;;;;;;;15.00;4.93;;;;;;;4.03;80.83;99783.69;4960284;28;20253;-55
2023/03/28 09:20:16;;;;;;;13.47;5.10;;;;;;;4.05;79.59;99779.28;4958622;28;20244;-55
2023/03/28 09:23:07;;;;;;;10.33;4.80;;;;;;;4.13;77.29;99779.72;4962563;28;20247;-55
2023/03/28 09:25:51;;;;;;;11.23;4.30;;;;;;;4.33;81.26;99772.63;4954902;28;20234;-55
2023/03/28 09:28:36;;;;;;;10.67;5.03;;;;;;;4.50;77.76;99775.13;4960823;28;20246;-55
2023/03/28 09:31:07;;;;;;;10.37;4.40;;;;;;;4.61;75.63;99771.97;4954528;28;20240;-55
2023/03/28 09:33:36;;;;;;;10.70;4.20;;;;;;;4.90;78.98;99773.84;4964028;28;20235;-55
2023/03/28 09:36:12;;;;;;;10.73;4.57;;;;;;;5.08;77.34;99772.81;4959625;28;20629;-55
2023/03/28 09:38:44;;;;;;;7.07;4.33;;;;;;;5.20;76.57;99778.22;4961881;28;21369;-55
2023/03/28 09:41:20;;;;;;;11.90;4.97;;;;;;;5.43;72.02;99782.06;4971332;28;20468;-54
2023/03/28 09:44:15;;;;;;;12.57;4.30;;;;;;;5.75;69.75;99787.94;4960415;28;20237;-53
2023/03/28 09:46:48;;;;;;;8.60;3.27;;;;;;;6.13;68.34;99780.56;4964746;28;20724;-55
2023/03/28 09:49:17;;;;;;;7.70;3.40;;;;;;;6.55;67.45;99780.59;4962050;28;20309;-54
2023/03/28 09:51:49;;;;;;;8.50;3.40;;;;;;;6.66;63.12;99775.56;4960568;28;20233;-54
2023/03/28 09:54:16;;;;;;;10.60;3.50;;;;;;;6.77;63.09;99775.72;4976493;28;20613;-55
2023/03/28 09:56:45;;;;;;;6.67;2.57;;;;;;;6.50;59.39;99768.75;4956136;28;20329;-55
2023/03/28 09:59:35;;;;;;;3.73;2.00;;;;;;;6.37;59.10;99775.63;4953326;28;20240;-54
2023/03/28 10:02:26;;;;;;;4.50;1.83;;;;;;;6.57;52.49;99773.56;4958418;28;20229;-55
2023/03/28 10:04:53;;;;;;;5.53;1.40;;;;;;;6.58;50.42;99768.25;4958521;28;20803;-54
2023/03/28 10:07:42;;;;;;;6.77;2.43;;;;;;;6.78;53.66;99771.34;4959990;28;20775;-55
2023/03/28 10:10:22;;;;;;;5.83;1.43;;;;;;;7.13;49.29;99760.47;4957392;28;20237;-55
2023/03/28 10:12:57;;;;;;;5.93;1.87;;;;;;;7.23;52.53;99760.66;4958332;28;20700;-54
2023/03/28 10:15:38;;;;;;;6.73;1.73;;;;;;;7.01;51.43;99758.66;4972339;28;20977;-55
2023/03/28 10:18:25;;;;;;;5.50;1.97;;;;;;;7.24;51.34;99762.34;4959908;28;20372;-55
2023/03/28 10:21:21;;;;;;;8.50;2.40;;;;;;;7.06;56.01;99749.63;4957465;28;20244;-55
2023/03/28 10:24:01;;;;;;;6.50;2.60;;;;;;;7.05;52.74;99758.34;4969846;28;20640;-53
2023/03/28 10:26:29;;;;;;;6.07;2.10;;;;;;;6.94;54.59;99743.47;4960935;28;20241;-55
2023/03/28 10:29:00;;;;;;;7.03;2.63;;;;;;;7.00;53.23;99770.78;4956988;28;20257;-53
2023/03/28 10:31:30;;;;;;;6.93;2.50;;;;;;;6.77;55.88;99764.50;4973290;28;20796;-53
2023/03/28 10:34:25;;;;;;;6.23;3.07;;;;;;;6.91;56.11;99754.06;4951562;28;20266;-54
2023/03/28 10:37:22;;;;;;;6.30;2.33;;;;;;;6.91;55.02;99751.47;4969400;28;20252;-55
2023/03/28 10:40:03;;;;;;;5.43;2.50;;;;;;;6.53;53.90;99751.31;4957843;28;20241;-52
2023/03/28 10:42:51;;;;;;;6.23;2.40;;;;;;;6.91;52.68;99745.44;4960505;28;20323;-54
2023/03/28 10:45:49;;;;;;;7.47;2.43;;;;;;;6.78;54.32;99737.63;4960191;28;20324;-54
2023/03/28 10:48:28;;;;;;;6.37;1.83;;;;;;;7.09;50.99;99733.03;4957053;28;20279;-55
2023/03/28 10:51:00;;;;;;;3.10;1.90;;;;;;;7.39;53.88;99737.13;4957713;28;20315;-54
2023/03/28 10:53:38;;;;;;;5.97;2.10;;;;;;;7.80;49.59;99730.84;4959526;28;20768;-54
2023/03/28 10:56:21;;;;;;;12.70;5.90;;;;;;;7.54;49.98;99730.88;4952704;28;20246;-55
2023/03/28 10:58:59;;;;;;;4.03;1.80;;;;;;;8.13;49.19;99734.66;4957674;28;20226;-52
2023/03/28 11:01:40;;;;;;;6.43;2.40;;;;;;;7.79;51.08;99738.78;4961741;28;20249;-53
2023/03/28 11:04:24;;;;;;;7.97;2.57;;;;;;;7.89;49.64;99732.00;4956576;28;20245;-55
2023/03/28 11:06:57;;;;;;;5.93;2.20;;;;;;;8.27;49.95;99725.88;4957706;28;20234;-54
2023/03/28 11:09:55;;;;;;;5.50;2.57;;;;;;;8.24;48.72;99720.88;4959542;28;20720;-55
2023/03/28 11:12:57;;;;;;;8.67;2.57;;;;;;;8.78;51.90;99721.44;4960288;28;20263;-55
2023/03/28 11:15:32;;;;;;;4.67;1.77;;;;;;;8.90;50.19;99716.28;4956804;28;20805;-54
2023/03/28 11:18:26;;;;;;;3.57;1.90;;;;;;;9.15;51.43;99710.06;4956796;28;20309;-53
2023/03/28 11:21:07;;;;;;;5.90;2.10;;;;;;;9.16;47.88;99714.34;4957001;28;20239;-54
2023/03/28 11:23:44;;;;;;;4.30;1.60;;;;;;;9.19;45.29;99718.47;4958700;28;20245;-55
2023/03/28 11:26:40;;;;;;;4.80;1.70;;;;;;;8.92;44.81;99704.78;4960093;28;20756;-55
2023/03/28 11:29:38;;;;;;;4.03;2.20;;;;;;;8.86;47.47;99694.84;4957608;28;20243;-53
2023/03/28 11:32:12;;;;;;;6.60;1.87;;;;;;;8.80;46.53;99696.13;4953421;28;20251;-55
2023/03/28 11:34:44;;;;;;;5.00;1.83;;;;;;;8.56;47.90;99694.38;4970891;28;20225;-54
2023/03/28 11:37:19;;;;;;;4.53;1.80;;;;;;;8.61;47.13;99680.19;4957930;28;20763;-55
2023/03/28 11:39:51;;;;;;;2.83;1.53;;;;;;;8.29;48.56;99678.97;4960645;28;20236;-55
2023/03/28 11:42:31;;;;;;;6.63;2.00;;;;;;;8.20;46.19;99677.81;4971017;28;20252;-55
2023/03/28 11:45:06;;;;;;;2.83;1.93;;;;;;;7.98;46.86;99670.72;4957903;28;20233;-55
2023/03/28 11:47:40;;;;;;;3.73;2.00;;;;;;;7.78;46.94;99666.94;4959312;28;20616;-55
2023/03/28 11:50:18;;;;;;;6.37;1.90;;;;;;;7.61;50.44;99657.69;4959289;28;20235;-55
2023/03/28 11:53:15;;;;;;;7.00;2.00;;;;;;;7.66;50.54;99655.63;4971158;28;20371;-55
2023/03/28 11:55:52;;;;;;;6.67;2.20;;;;;;;7.36;51.53;99646.41;4956325;28;20706;-53
2023/03/28 11:58:43;;;;;;;4.57;1.93;;;;;;;7.57;52.44;99651.06;4961343;28;20715;-55
2023/03/28 12:01:17;;;;;;;3.33;2.03;;;;;;;7.70;49.64;99641.47;4958095;28;20437;-55
2023/03/28 12:03:58;;;;;;;4.37;2.00;;;;;;;7.64;51.99;99636.69;4957144;28;20241;-56
2023/03/28 12:06:31;;;;;;;3.27;1.93;;;;;;;7.56;51.32;99633.81;4958730;28;20234;-55